Time;durP1;ratioP1;P1;durP2;ratioP2;P2;SDS_P1;SDS_P2;PMS_P1;PMS_P2;Temp;Humidity;BMP_temperature;BMP_pressure;BME280_temperature;BME280_humidity;BME280_pressure;Samples;Min_cycle;Max_cycle;Signal;HPM_P1;HPM_P2
2021/07/02 00:01:29;;;;;;;6.73;5.00;;;13.80;99.90;;;;;;5050646;28;20957;-80
2021/07/02 00:03:56;;;;;;;6.50;5.20;;;13.80;99.90;;;;;;5051013;28;20618;-80
2021/07/02 00:06:23;;;;;;;5.83;4.77;;;13.90;99.90;;;;;;5050308;28;20670;-80
2021/07/02 00:08:50;;;;;;;5.23;4.57;;;13.90;99.90;;;;;;5050974;28;20671;-80
2021/07/02 00:11:18;;;;;;;6.13;5.20;;;13.90;99.90;;;;;;5050821;28;20691;-80
2021/07/02 00:13:45;;;;;;;5.30;4.80;;;13.90;99.90;;;;;;5050737;28;20618;-80
2021/07/02 00:16:12;;;;;;;4.60;4.20;;;13.90;99.90;;;;;;5049660;28;20614;-80
2021/07/02 00:18:39;;;;;;;5.70;4.80;;;13.80;99.90;;;;;;5050792;28;20622;-80
2021/07/02 00:21:06;;;;;;;5.27;4.53;;;13.80;99.90;;;;;;5050730;28;20658;-80
2021/07/02 00:23:33;;;;;;;5.20;4.70;;;13.80;99.90;;;;;;5050830;28;20934;-80
2021/07/02 00:26:00;;;;;;;8.67;5.63;;;13.80;99.90;;;;;;5049958;28;20749;-80
2021/07/02 00:28:28;;;;;;;6.73;4.90;;;13.70;99.90;;;;;;5050400;28;20614;-80
2021/07/02 00:30:55;;;;;;;5.00;4.50;;;13.70;99.90;;;;;;5060105;28;20683;-80
2021/07/02 00:33:22;;;;;;;5.70;5.10;;;13.70;99.90;;;;;;5070624;28;21008;-80
2021/07/02 00:35:49;;;;;;;4.30;3.90;;;13.60;99.90;;;;;;5069231;28;20647;-80
2021/07/02 00:38:16;;;;;;;6.53;4.57;;;13.60;99.90;;;;;;5070471;28;20629;-80
2021/07/02 00:40:43;;;;;;;5.20;4.70;;;13.70;99.90;;;;;;5070318;28;20743;-80
2021/07/02 00:43:10;;;;;;;6.43;5.83;;;13.70;99.90;;;;;;5070041;28;20683;-80
2021/07/02 00:45:38;;;;;;;8.93;5.30;;;13.60;99.90;;;;;;5069530;28;20699;-80
2021/07/02 00:48:06;;;;;;;5.37;4.80;;;13.60;99.90;;;;;;5070330;28;20609;-80
2021/07/02 00:50:33;;;;;;;7.00;5.60;;;13.60;99.90;;;;;;5070218;28;20667;-80
2021/07/02 00:53:00;;;;;;;6.43;5.30;;;13.60;99.90;;;;;;5070422;28;20649;-80
2021/07/02 00:55:27;;;;;;;6.20;5.23;;;13.60;99.90;;;;;;5069437;28;21179;-80
2021/07/02 00:57:54;;;;;;;5.13;4.70;;;13.60;99.90;;;;;;5069968;28;20613;-80
2021/07/02 01:00:21;;;;;;;9.70;4.90;;;13.50;99.90;;;;;;5070243;28;20617;-80
2021/07/02 01:02:51;;;;;;;9.27;5.43;;;13.50;99.90;;;;;;5070082;28;20629;-80
2021/07/02 01:05:18;;;;;;;8.00;5.20;;;13.50;99.90;;;;;;5069446;28;20620;-80
2021/07/02 01:07:47;;;;;;;6.27;5.67;;;13.40;99.90;;;;;;5070470;28;20707;-80
2021/07/02 01:10:18;;;;;;;8.77;4.83;;;13.40;99.90;;;;;;5069773;28;20724;-80
2021/07/02 01:12:46;;;;;;;5.07;4.60;;;13.40;99.90;;;;;;5067384;28;20658;-80
2021/07/02 01:15:23;;;;;;;7.40;6.07;;;13.40;99.90;;;;;;5054673;28;20651;-80
2021/07/02 01:17:53;;;;;;;6.50;5.30;;;13.40;99.90;;;;;;5061129;28;20686;-80
2021/07/02 01:20:22;;;;;;;5.57;5.07;;;13.50;99.90;;;;;;5060431;28;20640;-80
2021/07/02 01:22:51;;;;;;;6.60;5.40;;;13.50;99.90;;;;;;5054891;28;20620;-80
2021/07/02 01:25:21;;;;;;;9.77;5.57;;;13.50;99.90;;;;;;5049581;28;20618;-80
2021/07/02 01:27:48;;;;;;;11.17;6.13;;;13.50;99.90;;;;;;5069939;28;20625;-80
2021/07/02 01:30:18;;;;;;;6.93;5.23;;;13.50;99.90;;;;;;5069864;28;21208;-80
2021/07/02 01:32:46;;;;;;;7.70;6.13;;;13.50;99.90;;;;;;5070213;28;20633;-80
2021/07/02 01:35:15;;;;;;;13.53;6.20;;;13.50;99.90;;;;;;5056688;28;20633;-80
2021/07/02 01:37:43;;;;;;;7.60;5.67;;;13.40;99.90;;;;;;5050013;28;20791;-80
2021/07/02 01:40:14;;;;;;;7.60;6.70;;;13.40;99.90;;;;;;5050032;28;20621;-79
2021/07/02 01:42:43;;;;;;;7.47;6.43;;;13.40;99.90;;;;;;5050823;28;20622;-80
2021/07/02 01:45:12;;;;;;;7.50;6.07;;;13.40;99.90;;;;;;5053146;28;20720;-80
2021/07/02 01:47:39;;;;;;;6.33;5.10;;;13.40;99.90;;;;;;5053332;28;20650;-80
2021/07/02 01:50:08;;;;;;;7.60;6.17;;;13.30;99.90;;;;;;5053582;28;20682;-80
2021/07/02 01:52:36;;;;;;;6.37;5.63;;;13.20;99.90;;;;;;5067463;28;20655;-80
2021/07/02 01:55:05;;;;;;;8.03;5.50;;;13.10;99.90;;;;;;5072864;28;20633;-80
2021/07/02 01:57:35;;;;;;;7.80;6.30;;;13.20;99.90;;;;;;5073296;28;20631;-80
2021/07/02 02:00:05;;;;;;;6.17;5.17;;;13.10;99.90;;;;;;5073382;28;20621;-80
2021/07/02 02:02:32;;;;;;;6.93;5.43;;;13.10;99.90;;;;;;5073083;28;20691;-80
2021/07/02 02:05:00;;;;;;;7.17;5.07;;;13.10;99.90;;;;;;5072766;28;20702;-80
2021/07/02 02:07:28;;;;;;;6.00;5.37;;;13.10;99.90;;;;;;5073158;28;20668;-80
2021/07/02 02:09:56;;;;;;;9.23;5.73;;;13.10;99.90;;;;;;5073166;28;20958;-80
2021/07/02 02:12:24;;;;;;;7.87;5.73;;;13.10;99.90;;;;;;5072889;28;20626;-80
2021/07/02 02:14:52;;;;;;;7.80;5.37;;;13.10;99.90;;;;;;5072166;28;21258;-80
2021/07/02 02:17:21;;;;;;;7.93;5.47;;;13.00;99.90;;;;;;5072873;28;21255;-81
2021/07/02 02:19:49;;;;;;;7.33;5.03;;;13.00;99.90;;;;;;5073119;28;20621;-80
2021/07/02 02:22:17;;;;;;;6.13;4.90;;;13.00;99.90;;;;;;5073107;28;20623;-80
2021/07/02 02:24:51;;;;;;;6.30;5.50;;;13.00;99.90;;;;;;5072262;28;21183;-80
2021/07/02 02:27:18;;;;;;;6.73;5.30;;;12.90;99.90;;;;;;5053745;28;20691;-80
2021/07/02 02:29:46;;;;;;;7.50;5.43;;;12.90;99.90;;;;;;5052850;28;21187;-80
2021/07/02 02:32:15;;;;;;;6.13;5.50;;;12.80;99.90;;;;;;5052746;28;20649;-80
2021/07/02 02:34:43;;;;;;;6.47;5.40;;;12.80;99.90;;;;;;5051333;28;21194;-80
2021/07/02 02:37:10;;;;;;;6.60;5.23;;;12.70;99.90;;;;;;5052440;28;20683;-80
2021/07/02 02:39:37;;;;;;;5.43;4.87;;;12.70;99.90;;;;;;5052569;28;20603;-80
2021/07/02 02:42:04;;;;;;;6.57;5.53;;;12.60;99.90;;;;;;5052159;28;20635;-80
2021/07/02 02:44:32;;;;;;;7.23;5.07;;;12.70;99.90;;;;;;5051930;28;20624;-80
2021/07/02 02:47:00;;;;;;;6.20;5.20;;;12.60;99.90;;;;;;5052364;28;20643;-80
2021/07/02 02:49:28;;;;;;;6.63;5.87;;;12.50;99.90;;;;;;5052339;28;20626;-80
2021/07/02 02:51:55;;;;;;;8.07;6.10;;;12.50;99.90;;;;;;5052213;28;20620;-79
2021/07/02 02:54:22;;;;;;;5.73;5.00;;;12.50;99.90;;;;;;5051067;28;20731;-80
2021/07/02 02:57:07;;;;;;;6.73;5.93;;;12.30;99.90;;;;;;5052169;28;20600;-80
2021/07/02 02:59:36;;;;;;;6.80;5.60;;;12.20;99.90;;;;;;5052262;28;20609;-80
2021/07/02 03:02:03;;;;;;;6.60;5.90;;;12.20;99.90;;;;;;5052157;28;21194;-80
2021/07/02 03:04:33;;;;;;;7.73;6.03;;;12.20;99.90;;;;;;5051960;28;20625;-80
2021/07/02 03:07:01;;;;;;;6.40;5.33;;;12.30;99.90;;;;;;5051517;28;20673;-80
2021/07/02 03:09:28;;;;;;;7.07;5.70;;;12.30;99.90;;;;;;5052148;28;21133;-80
2021/07/02 03:11:55;;;;;;;8.27;6.17;;;12.30;99.90;;;;;;5052093;28;20664;-80
2021/07/02 03:14:23;;;;;;;6.87;5.80;;;12.20;99.90;;;;;;5051582;28;20629;-81
2021/07/02 03:16:51;;;;;;;6.40;5.77;;;12.20;99.90;;;;;;5051737;28;20610;-80
2021/07/02 03:19:19;;;;;;;7.67;6.10;;;12.20;99.90;;;;;;5051600;28;20620;-80
2021/07/02 03:21:48;;;;;;;8.07;5.60;;;12.10;99.90;;;;;;5051695;28;20595;-80
2021/07/02 03:24:15;;;;;;;7.20;5.93;;;12.10;99.90;;;;;;5051968;28;21191;-80
2021/07/02 03:26:42;;;;;;;6.70;6.00;;;12.10;99.90;;;;;;5065141;28;20692;-80
2021/07/02 03:29:09;;;;;;;6.67;5.87;;;12.10;99.90;;;;;;5071918;28;20601;-80
2021/07/02 03:31:36;;;;;;;7.47;5.73;;;12.10;99.90;;;;;;5071599;28;21154;-80
2021/07/02 03:34:03;;;;;;;7.83;5.53;;;12.10;99.90;;;;;;5071304;28;20594;-80
2021/07/02 03:36:30;;;;;;;7.63;5.40;;;12.10;99.90;;;;;;5069928;28;20610;-80
2021/07/02 03:38:59;;;;;;;7.33;5.63;;;12.00;99.90;;;;;;5071459;28;21234;-80
2021/07/02 03:41:26;;;;;;;6.83;5.33;;;12.00;99.90;;;;;;5071141;28;20601;-80
2021/07/02 03:43:53;;;;;;;5.77;5.20;;;12.00;99.90;;;;;;5071192;28;20614;-80
2021/07/02 03:46:20;;;;;;;5.70;5.03;;;12.00;99.90;;;;;;5070492;28;20683;-80
2021/07/02 03:48:46;;;;;;;5.57;5.00;;;12.00;99.90;;;;;;5070965;28;20622;-81
2021/07/02 03:51:14;;;;;;;6.90;4.90;;;12.00;99.90;;;;;;5071137;28;20610;-80
2021/07/02 03:53:40;;;;;;;6.43;5.83;;;12.10;99.90;;;;;;5071079;28;20615;-80
2021/07/02 03:56:09;;;;;;;5.90;5.30;;;12.00;99.90;;;;;;5070682;28;20720;-80
2021/07/02 03:58:36;;;;;;;6.70;5.80;;;12.00;99.90;;;;;;5070887;28;20676;-80
2021/07/02 04:01:03;;;;;;;9.57;5.73;;;12.00;99.90;;;;;;5071300;28;20716;-81
2021/07/02 04:03:31;;;;;;;7.07;5.90;;;12.00;99.90;;;;;;5070849;28;21189;-80
2021/07/02 04:05:59;;;;;;;6.83;6.13;;;12.00;99.90;;;;;;5069558;28;21043;-80
2021/07/02 04:08:26;;;;;;;8.67;6.37;;;12.00;99.90;;;;;;5070944;28;20615;-80
2021/07/02 04:10:53;;;;;;;8.93;6.37;;;12.10;99.90;;;;;;5070773;28;20703;-80
2021/07/02 04:13:21;;;;;;;7.60;5.27;;;12.10;99.90;;;;;;5070800;28;20610;-80
2021/07/02 04:15:48;;;;;;;6.87;6.17;;;12.10;99.90;;;;;;5069806;28;20614;-80
2021/07/02 04:18:15;;;;;;;8.40;5.50;;;12.20;99.90;;;;;;5070806;28;20618;-80
2021/07/02 04:20:42;;;;;;;7.67;6.23;;;12.20;99.90;;;;;;5070556;28;20662;-80
2021/07/02 04:23:09;;;;;;;6.27;5.67;;;12.30;99.90;;;;;;5070597;28;20662;-80
2021/07/02 04:25:36;;;;;;;7.00;5.70;;;12.40;99.90;;;;;;5065460;28;20628;-80
2021/07/02 04:28:03;;;;;;;8.13;6.20;;;12.50;99.90;;;;;;5050297;28;20647;-80
2021/07/02 04:30:31;;;;;;;8.07;7.10;;;12.50;99.90;;;;;;5050346;28;21180;-80
2021/07/02 04:32:58;;;;;;;6.60;6.00;;;12.60;99.90;;;;;;5050602;28;21193;-81
2021/07/02 04:35:26;;;;;;;7.30;5.70;;;12.60;99.90;;;;;;5049261;28;20660;-80
2021/07/02 04:37:53;;;;;;;8.70;5.80;;;12.70;99.90;;;;;;5050320;28;20664;-80
2021/07/02 04:40:20;;;;;;;8.57;6.93;;;12.70;99.90;;;;;;5050525;28;20671;-81
2021/07/02 04:42:47;;;;;;;8.20;6.60;;;12.80;99.90;;;;;;5050015;28;20988;-81
2021/07/02 04:45:15;;;;;;;8.13;6.90;;;12.90;99.90;;;;;;5049828;28;20605;-80
2021/07/02 04:47:43;;;;;;;8.80;6.40;;;13.00;99.90;;;;;;5050599;28;20652;-81
2021/07/02 04:50:11;;;;;;;7.90;6.77;;;13.00;99.90;;;;;;5050280;28;20623;-81
2021/07/02 04:52:38;;;;;;;7.07;6.03;;;13.10;99.90;;;;;;5050305;28;20707;-81
2021/07/02 04:55:05;;;;;;;7.03;5.97;;;13.10;99.90;;;;;;5049501;28;20608;-81
2021/07/02 04:57:32;;;;;;;9.17;7.47;;;13.10;99.90;;;;;;5050383;28;20621;-80
2021/07/02 05:00:01;;;;;;;8.00;6.83;;;13.20;99.90;;;;;;5050139;28;20622;-80
2021/07/02 05:02:28;;;;;;;9.83;7.20;;;13.20;99.90;;;;;;5050482;28;20672;-80
2021/07/02 05:04:56;;;;;;;6.77;6.07;;;13.30;99.90;;;;;;5049663;28;20687;-81
2021/07/02 05:07:24;;;;;;;8.43;6.20;;;13.40;99.90;;;;;;5050124;28;20649;-80
2021/07/02 05:09:51;;;;;;;7.37;6.37;;;13.40;99.90;;;;;;5049606;28;20679;-80
2021/07/02 05:12:18;;;;;;;7.97;6.87;;;13.40;99.90;;;;;;5050280;28;20625;-80
2021/07/02 05:14:45;;;;;;;11.03;8.47;;;13.40;99.90;;;;;;5049586;28;20656;-81
2021/07/02 05:17:12;;;;;;;8.90;8.00;;;13.40;99.90;;;;;;5052377;28;20710;-80
2021/07/02 05:19:41;;;;;;;8.77;7.87;;;13.50;99.90;;;;;;5054163;28;20599;-81
2021/07/02 05:22:13;;;;;;;7.90;6.90;;;13.60;99.90;;;;;;5054118;28;20626;-81
2021/07/02 05:24:41;;;;;;;6.37;5.63;;;13.60;99.90;;;;;;5053119;28;20640;-81
2021/07/02 05:27:09;;;;;;;7.70;6.90;;;13.70;99.90;;;;;;5071035;28;20702;-81
2021/07/02 05:29:36;;;;;;;9.77;6.90;;;13.90;99.90;;;;;;5073740;28;20670;-81
2021/07/02 05:32:03;;;;;;;8.27;7.07;;;14.20;99.90;;;;;;5073815;28;21025;-81
2021/07/02 05:34:30;;;;;;;7.17;5.83;;;14.30;99.90;;;;;;5073245;28;20646;-81
2021/07/02 05:36:56;;;;;;;8.07;6.67;;;14.30;99.90;;;;;;5071000;28;20609;-81
2021/07/02 05:39:25;;;;;;;7.23;6.53;;;14.30;99.90;;;;;;5073169;28;21105;-80
2021/07/02 05:41:52;;;;;;;9.73;7.20;;;14.40;99.90;;;;;;5073479;28;20633;-80
2021/07/02 05:44:19;;;;;;;9.20;6.87;;;14.50;99.90;;;;;;5073117;28;20681;-80
2021/07/02 05:46:46;;;;;;;9.33;6.13;;;14.60;99.90;;;;;;5073250;28;20609;-81
2021/07/02 05:49:13;;;;;;;7.63;6.50;;;14.70;99.90;;;;;;5073524;28;21110;-81
2021/07/02 05:51:40;;;;;;;7.17;6.20;;;14.70;99.90;;;;;;5073233;28;20612;-81
2021/07/02 05:54:08;;;;;;;10.37;6.00;;;14.80;99.90;;;;;;5073537;28;20613;-81
2021/07/02 05:56:37;;;;;;;6.50;5.90;;;14.90;99.90;;;;;;5072960;28;20628;-80
2021/07/02 05:59:04;;;;;;;8.23;7.07;;;14.90;99.90;;;;;;5073455;28;20729;-80
2021/07/02 06:01:31;;;;;;;6.33;5.70;;;14.90;99.90;;;;;;5073302;28;21341;-80
2021/07/02 06:03:57;;;;;;;7.10;6.13;;;15.00;99.90;;;;;;5072947;28;20621;-81
2021/07/02 06:06:24;;;;;;;8.60;6.40;;;15.00;99.90;;;;;;5072657;28;21016;-80
2021/07/02 06:08:52;;;;;;;10.40;6.97;;;15.10;99.90;;;;;;5073278;28;20734;-80
2021/07/02 06:11:20;;;;;;;7.57;6.53;;;15.20;99.90;;;;;;5072728;28;20647;-80
2021/07/02 06:13:48;;;;;;;7.23;6.33;;;15.30;99.90;;;;;;5072940;28;20659;-80
2021/07/02 06:16:16;;;;;;;8.40;6.40;;;15.40;99.90;;;;;;5072216;28;20648;-81
2021/07/02 06:18:43;;;;;;;7.43;6.70;;;15.50;99.90;;;;;;5072848;28;20708;-80
2021/07/02 06:21:10;;;;;;;6.63;5.63;;;15.60;99.90;;;;;;5073072;28;20609;-80
2021/07/02 06:23:38;;;;;;;10.90;6.40;;;15.60;99.90;;;;;;5073016;28;21032;-80
2021/07/02 06:26:07;;;;;;;6.87;6.27;;;15.70;99.90;;;;;;5063778;28;20628;-80
2021/07/02 06:28:34;;;;;;;7.10;6.20;;;15.70;99.90;;;;;;5051850;28;20646;-80
2021/07/02 06:31:02;;;;;;;7.50;6.70;;;15.80;99.90;;;;;;5052756;28;21018;-80
2021/07/02 06:33:29;;;;;;;8.37;6.83;;;16.00;99.90;;;;;;5053098;28;21057;-81
2021/07/02 06:35:57;;;;;;;8.07;7.17;;;16.00;99.90;;;;;;5051659;28;21009;-80
2021/07/02 06:38:24;;;;;;;9.80;6.80;;;16.00;99.90;;;;;;5052802;28;20637;-81
2021/07/02 06:40:52;;;;;;;7.87;7.17;;;16.00;99.90;;;;;;5052446;28;20714;-81
2021/07/02 06:43:19;;;;;;;6.80;6.20;;;16.20;99.90;;;;;;5052573;28;20679;-81
2021/07/02 06:45:46;;;;;;;7.33;6.40;;;16.30;99.90;;;;;;5051531;28;20671;-81
2021/07/02 06:48:15;;;;;;;6.43;5.80;;;16.30;99.90;;;;;;5052313;28;21226;-81
2021/07/02 06:50:44;;;;;;;7.47;6.70;;;16.40;99.90;;;;;;5052321;28;20603;-80
2021/07/02 06:53:11;;;;;;;7.03;6.30;;;16.50;99.90;;;;;;5052304;28;21206;-81
2021/07/02 06:55:38;;;;;;;6.63;6.03;;;16.50;99.90;;;;;;5051783;28;20606;-81
2021/07/02 06:58:08;;;;;;;8.37;6.70;;;16.50;99.90;;;;;;5052050;28;20993;-81
2021/07/02 07:00:37;;;;;;;6.77;6.17;;;16.60;99.90;;;;;;5052267;28;20750;-81
2021/07/02 07:03:04;;;;;;;6.90;6.30;;;16.70;99.90;;;;;;5052340;28;20668;-80
2021/07/02 07:05:33;;;;;;;7.73;6.23;;;16.80;99.90;;;;;;5051742;28;20680;-81
2021/07/02 07:08:01;;;;;;;6.77;5.80;;;17.00;99.90;;;;;;5051965;28;20753;-81
2021/07/02 07:10:30;;;;;;;10.00;6.30;;;17.10;99.60;;;;;;5051998;28;20619;-81
2021/07/02 07:12:57;;;;;;;6.50;6.00;;;17.10;99.90;;;;;;5051672;28;20718;-80
2021/07/02 07:15:25;;;;;;;7.07;6.47;;;17.00;98.40;;;;;;5051549;28;20725;-80
2021/07/02 07:17:52;;;;;;;7.23;6.53;;;17.00;99.30;;;;;;5051885;28;21187;-80
2021/07/02 07:20:19;;;;;;;7.17;5.83;;;17.20;99.20;;;;;;5051758;28;20612;-80
2021/07/02 07:22:48;;;;;;;6.70;6.10;;;17.20;98.60;;;;;;5051649;28;20619;-81
2021/07/02 07:25:15;;;;;;;6.87;5.87;;;17.20;98.50;;;;;;5052244;28;20621;-81
2021/07/02 07:27:44;;;;;;;6.90;5.70;;;17.30;97.20;;;;;;5071633;28;20662;-81
2021/07/02 07:30:13;;;;;;;6.53;5.90;;;17.30;96.40;;;;;;5071613;28;20650;-81
2021/07/02 07:32:40;;;;;;;7.23;6.27;;;17.50;97.20;;;;;;5071568;28;20632;-81
2021/07/02 07:35:16;;;;;;;7.07;5.57;;;17.60;97.30;;;;;;5070164;28;20750;-81
2021/07/02 07:37:43;;;;;;;5.90;5.30;;;17.60;97.70;;;;;;5071186;28;20644;-81
2021/07/02 07:40:13;;;;;;;7.03;6.37;;;17.70;96.30;;;;;;5071378;28;20626;-81
2021/07/02 07:42:40;;;;;;;5.47;5.00;;;17.60;95.30;;;;;;5071185;28;20621;-81
2021/07/02 07:45:08;;;;;;;6.80;5.57;;;17.50;96.50;;;;;;5070882;28;20669;-81
2021/07/02 07:47:35;;;;;;;6.40;5.00;;;17.30;95.60;;;;;;5071138;28;21212;-81
2021/07/02 07:50:07;;;;;;;6.27;5.73;;;17.20;95.90;;;;;;5071222;28;20613;-80
2021/07/02 07:52:44;;;;;;;7.53;4.90;;;17.10;96.30;;;;;;5071281;28;20636;-80
2021/07/02 07:55:12;;;;;;;5.30;4.70;;;17.20;96.10;;;;;;5070519;28;21184;-80
2021/07/02 07:57:39;;;;;;;6.03;5.07;;;17.30;95.80;;;;;;5071036;28;20639;-81
2021/07/02 08:00:08;;;;;;;8.70;5.63;;;17.40;96.20;;;;;;5071013;28;20595;-80
2021/07/02 08:02:34;;;;;;;5.40;4.90;;;17.50;95.50;;;;;;5070765;28;20635;-80
2021/07/02 08:05:01;;;;;;;4.93;4.53;;;17.60;95.60;;;;;;5070122;28;20617;-81
2021/07/02 08:07:34;;;;;;;6.77;5.87;;;17.90;95.00;;;;;;5070871;28;20611;-81
2021/07/02 08:10:01;;;;;;;5.03;4.63;;;18.10;94.60;;;;;;5071011;28;20613;-81
2021/07/02 08:12:30;;;;;;;4.30;3.93;;;18.30;93.90;;;;;;5070823;28;20624;-82
2021/07/02 08:14:57;;;;;;;9.90;5.50;;;18.50;94.80;;;;;;5070081;28;21166;-81
2021/07/02 08:17:28;;;;;;;5.17;4.53;;;18.50;93.50;;;;;;5070304;28;20625;-81
2021/07/02 08:19:55;;;;;;;5.80;5.10;;;18.20;93.30;;;;;;5070827;28;20624;-81
2021/07/02 08:22:22;;;;;;;13.33;7.10;;;18.00;93.90;;;;;;5070685;28;20614;-81
2021/07/02 08:24:49;;;;;;;5.73;5.03;;;18.00;94.00;;;;;;5069984;28;20612;-81
2021/07/02 08:27:16;;;;;;;6.20;5.13;;;18.00;93.80;;;;;;5052697;28;20633;-81
2021/07/02 08:29:44;;;;;;;5.40;4.90;;;18.20;94.30;;;;;;5050528;28;20660;-82
2021/07/02 08:32:11;;;;;;;6.30;5.77;;;18.40;94.10;;;;;;5053426;28;20626;-81
2021/07/02 08:34:40;;;;;;;5.83;5.30;;;18.80;94.00;;;;;;5058595;28;20618;-82
2021/07/02 08:37:10;;;;;;;6.40;5.80;;;19.00;93.90;;;;;;5058422;28;20607;-81
2021/07/02 08:39:37;;;;;;;6.47;5.10;;;19.00;92.00;;;;;;5068161;28;21177;-82
2021/07/02 08:42:06;;;;;;;6.53;5.33;;;18.70;92.70;;;;;;5051671;28;20633;-81
2021/07/02 08:44:33;;;;;;;6.80;5.20;;;18.60;92.30;;;;;;5068132;28;20626;-81
2021/07/02 08:47:01;;;;;;;6.83;4.67;;;18.40;92.70;;;;;;5069727;28;20625;-81
2021/07/02 08:49:31;;;;;;;5.07;4.57;;;18.50;92.10;;;;;;5069335;28;20648;-81
2021/07/02 08:51:59;;;;;;;5.60;5.03;;;18.50;93.00;;;;;;5070134;28;20662;-81
2021/07/02 08:54:26;;;;;;;5.67;5.17;;;18.40;92.00;;;;;;5068272;28;20608;-81
2021/07/02 08:56:57;;;;;;;5.63;5.13;;;18.40;92.00;;;;;;5049837;28;20768;-81
2021/07/02 08:59:26;;;;;;;6.90;5.80;;;18.30;91.50;;;;;;5050231;28;20663;-81
2021/07/02 09:01:54;;;;;;;5.80;5.30;;;18.50;91.90;;;;;;5050650;28;20945;-81
2021/07/02 09:04:24;;;;;;;6.20;5.37;;;18.60;91.60;;;;;;5049757;28;20680;-82
2021/07/02 09:07:08;;;;;;;5.67;5.10;;;18.40;90.50;;;;;;5053607;28;20664;-82
2021/07/02 09:09:49;;;;;;;5.30;4.80;;;18.40;90.90;;;;;;5069866;28;21412;-82
2021/07/02 09:12:18;;;;;;;5.30;4.80;;;18.80;91.70;;;;;;5069803;28;20701;-81
2021/07/02 09:15:05;;;;;;;5.10;4.63;;;19.10;90.20;;;;;;5069697;28;20616;-82
2021/07/02 09:17:33;;;;;;;4.53;4.13;;;19.10;90.20;;;;;;5070111;28;20628;-81
2021/07/02 09:20:12;;;;;;;5.23;4.77;;;19.00;90.60;;;;;;5069231;28;20674;-82
2021/07/02 09:22:49;;;;;;;5.10;4.33;;;18.90;90.00;;;;;;5069742;28;20605;-81
2021/07/02 09:25:27;;;;;;;6.17;5.07;;;19.20;90.60;;;;;;5067543;28;21547;-82
2021/07/02 09:27:59;;;;;;;9.93;5.00;;;19.60;91.70;;;;;;5049904;28;20614;-81
2021/07/02 09:30:28;;;;;;;5.80;5.30;;;19.70;87.70;;;;;;5049903;28;20598;-82
2021/07/02 09:32:59;;;;;;;5.60;5.10;;;20.00;87.10;;;;;;5061216;28;21211;-82
2021/07/02 09:35:35;;;;;;;5.90;5.33;;;20.00;86.60;;;;;;5067441;28;21008;-81
2021/07/02 09:38:03;;;;;;;6.87;6.27;;;20.20;86.80;;;;;;5068465;28;20705;-82
2021/07/02 09:40:32;;;;;;;5.40;4.90;;;19.90;87.90;;;;;;5069309;28;20617;-81
2021/07/02 09:43:09;;;;;;;5.57;4.93;;;20.00;87.50;;;;;;5069710;28;20633;-82
2021/07/02 09:45:45;;;;;;;5.10;4.60;;;20.30;87.50;;;;;;5070223;28;20609;-81
2021/07/02 09:48:13;;;;;;;5.30;4.80;;;20.50;87.30;;;;;;5069090;28;21111;-82
2021/07/02 09:50:45;;;;;;;5.03;4.03;;;20.90;86.40;;;;;;5069919;28;20619;-82
2021/07/02 09:53:13;;;;;;;4.43;4.13;;;20.80;83.00;;;;;;5069693;28;20619;-81
2021/07/02 09:55:45;;;;;;;5.30;4.80;;;20.50;83.50;;;;;;5070075;28;20622;-81
2021/07/02 09:58:14;;;;;;;5.03;4.63;;;20.30;85.80;;;;;;5069860;28;20602;-82
2021/07/02 10:00:43;;;;;;;5.00;4.60;;;20.10;85.30;;;;;;5069913;28;21194;-81
2021/07/02 10:03:12;;;;;;;4.80;4.40;;;19.70;83.30;;;;;;5069859;28;20664;-81
2021/07/02 10:05:51;;;;;;;5.23;4.73;;;20.10;85.40;;;;;;5073072;28;20601;-82
2021/07/02 10:08:20;;;;;;;5.37;4.90;;;20.50;81.60;;;;;;5073435;28;20694;-82
2021/07/02 10:10:47;;;;;;;5.23;4.57;;;21.00;83.30;;;;;;5073393;28;20610;-82
2021/07/02 10:13:15;;;;;;;4.40;4.07;;;21.10;79.10;;;;;;5073432;28;21045;-82
2021/07/02 10:15:44;;;;;;;5.20;4.27;;;21.00;77.20;;;;;;5073310;28;20633;-82
2021/07/02 10:18:14;;;;;;;5.33;3.90;;;21.10;80.70;;;;;;5066421;28;21067;-82
2021/07/02 10:20:43;;;;;;;5.40;4.07;;;21.30;78.30;;;;;;5053357;28;21181;-82
2021/07/02 10:23:12;;;;;;;5.00;4.60;;;21.40;76.50;;;;;;5052771;28;21169;-82
2021/07/02 10:25:42;;;;;;;5.73;5.23;;;21.50;81.70;;;;;;5057543;28;21554;-82
2021/07/02 10:28:12;;;;;;;4.77;4.37;;;21.70;76.60;;;;;;5072727;28;20636;-82
2021/07/02 10:30:40;;;;;;;5.03;4.53;;;21.30;77.00;;;;;;5072812;28;20723;-82
2021/07/02 10:33:07;;;;;;;5.20;4.50;;;21.10;73.90;;;;;;5072997;28;20635;-83
2021/07/02 10:35:36;;;;;;;4.90;4.50;;;21.40;78.50;;;;;;5072352;28;20620;-82
2021/07/02 10:38:04;;;;;;;4.67;4.27;;;21.60;76.70;;;;;;5072695;28;20635;-82
2021/07/02 10:40:38;;;;;;;4.97;4.57;;;22.00;77.10;;;;;;5072695;28;20675;-81
2021/07/02 10:43:17;;;;;;;4.97;4.50;;;22.40;79.00;;;;;;5072256;28;20644;-81
2021/07/02 10:46:12;;;;;;;4.80;4.40;;;22.50;73.70;;;;;;5071798;28;20657;-82
2021/07/02 10:48:49;;;;;;;5.00;4.60;;;21.90;71.20;;;;;;5055519;28;21035;-82
2021/07/02 10:51:49;;;;;;;5.03;4.60;;;21.30;75.20;;;;;;5052556;28;20617;-82
2021/07/02 10:54:47;;;;;;;5.63;4.87;;;21.10;73.20;;;;;;5051990;28;20978;-83
2021/07/02 10:57:18;;;;;;;4.80;4.40;;;21.40;74.10;;;;;;5052444;28;20655;-82
2021/07/02 11:00:08;;;;;;;5.87;4.80;;;21.70;68.80;;;;;;5052226;28;20629;-82
2021/07/02 11:02:35;;;;;;;4.63;4.27;;;21.90;74.20;;;;;;5052236;28;20732;-81
2021/07/02 11:05:05;;;;;;;5.67;5.27;;;21.90;75.60;;;;;;5055977;28;20642;-81
2021/07/02 11:07:41;;;;;;;5.47;4.97;;;21.60;73.60;;;;;;5062477;28;20629;-81
2021/07/02 11:10:10;;;;;;;5.87;5.27;;;21.40;73.50;;;;;;5068437;28;20663;-81
2021/07/02 11:12:55;;;;;;;6.60;3.97;;;21.30;76.10;;;;;;5051357;28;20939;-81
2021/07/02 11:15:23;;;;;;;4.40;4.00;;;21.90;73.80;;;;;;5049144;28;20738;-81
2021/07/02 11:17:52;;;;;;;5.00;4.60;;;22.30;72.40;;;;;;5050883;28;20631;-82
2021/07/02 11:20:31;;;;;;;5.03;4.53;;;22.70;73.10;;;;;;5051367;28;21071;-81
2021/07/02 11:23:19;;;;;;;6.80;5.20;;;22.80;69.20;;;;;;5065710;28;20638;-81
2021/07/02 11:25:50;;;;;;;6.00;5.50;;;23.10;70.70;;;;;;5056931;28;20638;-81
2021/07/02 11:28:40;;;;;;;5.20;4.80;;;23.40;71.10;;;;;;5071442;28;20686;-81
2021/07/02 11:31:09;;;;;;;5.53;5.13;;;23.60;70.00;;;;;;5069786;28;20636;-81
2021/07/02 11:33:37;;;;;;;5.73;5.23;;;23.50;65.10;;;;;;5051283;28;21031;-81
2021/07/02 11:36:12;;;;;;;5.40;5.00;;;23.60;67.90;;;;;;5049968;28;21037;-81
2021/07/02 11:38:51;;;;;;;5.30;4.90;;;23.60;71.80;;;;;;5060011;28;20760;-82
2021/07/02 11:41:24;;;;;;;6.77;6.10;;;23.90;72.80;;;;;;5071338;28;20670;-82
2021/07/02 11:43:53;;;;;;;5.10;4.70;;;23.40;69.30;;;;;;5056866;28;20687;-81
2021/07/02 11:46:21;;;;;;;5.80;5.30;;;23.50;69.90;;;;;;5051613;28;20622;-81
2021/07/02 11:48:50;;;;;;;5.93;5.20;;;23.40;66.20;;;;;;5051809;28;20650;-81
2021/07/02 11:51:19;;;;;;;6.20;5.60;;;23.20;64.80;;;;;;5050779;28;21052;-81
2021/07/02 11:53:49;;;;;;;5.67;5.17;;;23.70;69.80;;;;;;5050964;28;20636;-81
2021/07/02 11:56:19;;;;;;;5.03;4.63;;;24.50;68.90;;;;;;5056649;28;20699;-81
2021/07/02 11:58:47;;;;;;;6.60;4.87;;;24.70;65.10;;;;;;5071004;28;21305;-81
2021/07/02 12:01:17;;;;;;;5.37;4.97;;;25.50;67.70;;;;;;5071199;28;20648;-81
2021/07/02 12:03:47;;;;;;;5.33;4.93;;;25.30;63.90;;;;;;5070541;28;20614;-81
2021/07/02 12:06:23;;;;;;;6.10;4.50;;;26.20;64.70;;;;;;5070296;28;20658;-82
2021/07/02 12:09:06;;;;;;;5.10;4.80;;;26.80;57.10;;;;;;5066703;28;21012;-82
2021/07/02 12:11:38;;;;;;;5.03;4.63;;;27.90;59.50;;;;;;5071140;28;21258;-82
2021/07/02 12:14:06;;;;;;;5.30;4.90;;;28.60;56.00;;;;;;5070625;28;20716;-82
2021/07/02 12:16:37;;;;;;;4.97;4.57;;;29.00;54.70;;;;;;5071323;28;20620;-82
2021/07/02 12:19:07;;;;;;;4.40;4.10;;;29.90;54.30;;;;;;5070668;28;20648;-80
2021/07/02 12:21:36;;;;;;;4.83;4.53;;;29.40;53.00;;;;;;5071067;28;21030;-83
2021/07/02 12:24:06;;;;;;;5.20;4.80;;;29.00;51.90;;;;;;5070141;28;20637;-82
2021/07/02 12:26:34;;;;;;;4.67;4.37;;;29.20;52.70;;;;;;5069720;28;20602;-82
2021/07/02 12:29:13;;;;;;;4.97;4.57;;;29.30;52.10;;;;;;5070864;28;20648;-83
2021/07/02 12:31:45;;;;;;;4.80;4.47;;;29.90;52.50;;;;;;5070650;28;20621;-83
2021/07/02 12:34:18;;;;;;;4.63;4.27;;;29.40;47.80;;;;;;5070413;28;20613;-83
2021/07/02 12:36:57;;;;;;;5.40;4.90;;;29.40;50.60;;;;;;5070550;28;21181;-82
2021/07/02 12:39:31;;;;;;;4.97;4.67;;;29.50;50.70;;;;;;5070504;28;20648;-83
2021/07/02 12:42:00;;;;;;;4.43;4.13;;;30.30;48.90;;;;;;5070185;28;20663;-83
2021/07/02 12:44:30;;;;;;;4.70;4.40;;;31.20;48.50;;;;;;5069966;28;20614;-83
2021/07/02 12:46:59;;;;;;;4.90;4.50;;;31.80;47.60;;;;;;5070657;28;20657;-83
2021/07/02 12:49:33;;;;;;;4.77;4.47;;;30.70;48.60;;;;;;5070495;28;20598;-82
2021/07/02 12:54:56;;;;;;;4.20;4.00;;;30.70;48.10;;;;;;5070100;28;20612;-82
2021/07/02 12:57:30;;;;;;;5.07;4.67;;;31.50;49.10;;;;;;5070340;28;21232;-83
2021/07/02 12:59:59;;;;;;;5.30;4.90;;;31.80;48.00;;;;;;5050163;28;21223;-83